CheckWX is a tool to help pilots better visualize weather data.  It is not intended as a substitute for an official pre-flight weather briefing.

18:04:06 UTC

KJWN METAR
John C Tune Airport
Nashville, Tennessee, USA
Current

9 mins ago

KJWN 241755Z AUTO 20007G14KT 180V250 10SM SCT050 SCT055 26/15 A2993 RMK A01
Observed
Apr-24 @ 17:55 UTC
Wind
  • 200° at 7 KTS
  • Gusting to 14 KTS
Visibility
10 SM
Flight Rules
VFR
Cloud Levels
  • Scattered at 5,000' AGL
  • Scattered at 5,500' AGL
Temperature
26°C / 79°F
Dewpoint
15°C / 59°F
Humidity
51%
Altimeter
29.93" Hg
Pressure
1013.52 hPa
Previous

29 mins ago

KJWN 241735Z AUTO 19007G13KT 10SM FEW047 FEW055 26/15 A2994 RMK A01
Observed
Apr-24 @ 17:35 UTC
Wind
  • 190° at 7 KTS
  • Gusting to 13 KTS
Visibility
10 SM
Flight Rules
VFR
Cloud Levels
  • Few at 4,700' AGL
  • Few at 5,500' AGL
Temperature
26°C / 79°F
Dewpoint
15°C / 59°F
Humidity
51%
Altimeter
29.94" Hg
Pressure
1013.92 hPa
Previous

49 mins ago

KJWN 241715Z AUTO 24005G11KT 10SM SCT043 25/14 A2995 RMK A01
Observed
Apr-24 @ 17:15 UTC
Wind
  • 240° at 5 KTS
  • Gusting to 11 KTS
Visibility
10 SM
Flight Rules
VFR
Cloud Levels
  • Scattered at 4,300' AGL
Temperature
25°C / 77°F
Dewpoint
14°C / 57°F
Humidity
51%
Altimeter
29.95" Hg
Pressure
1014.22 hPa